Time;durP1;ratioP1;P1;durP2;ratioP2;P2;SDS_P1;SDS_P2;PMS_P1;PMS_P2;Temp;Humidity;BMP_temperature;BMP_pressure;BME280_temperature;BME280_humidity;BME280_pressure;Samples;Min_cycle;Max_cycle;Signal;HPM_P1;HPM_P2
2022/07/11 00:02:06;;;;;;;3.47;2.15;;;18.60;99.90;;;;;;5068876;28;20021;-67
2022/07/11 00:04:32;;;;;;;7.35;2.55;;;18.60;99.90;;;;;;5068924;28;20059;-67
2022/07/11 00:06:59;;;;;;;3.50;2.33;;;18.60;99.90;;;;;;5072189;28;20025;-67
2022/07/11 00:09:24;;;;;;;10.73;2.00;;;18.60;99.90;;;;;;5072747;28;20398;-67
2022/07/11 00:11:50;;;;;;;6.15;2.22;;;18.50;99.90;;;;;;5071029;28;20021;-67
2022/07/11 00:14:17;;;;;;;5.63;2.17;;;18.50;99.90;;;;;;5072138;28;20385;-67
2022/07/11 00:16:42;;;;;;;7.93;2.17;;;18.50;99.90;;;;;;5072730;28;20044;-67
2022/07/11 00:19:08;;;;;;;3.13;1.90;;;18.50;99.90;;;;;;5065119;28;20026;-67
2022/07/11 00:21:35;;;;;;;4.05;2.35;;;18.50;99.90;;;;;;5055282;28;20467;-67
2022/07/11 00:24:02;;;;;;;6.20;2.22;;;18.50;99.90;;;;;;5072685;28;20096;-67
2022/07/11 00:26:27;;;;;;;4.07;2.22;;;18.50;99.90;;;;;;5072290;28;20032;-67
2022/07/11 00:28:53;;;;;;;5.53;2.15;;;18.50;99.90;;;;;;5071599;28;20087;-67
2022/07/11 00:31:19;;;;;;;9.07;2.67;;;18.40;99.90;;;;;;5072001;28;20102;-67
2022/07/11 00:33:44;;;;;;;5.32;2.38;;;18.40;99.90;;;;;;5072346;28;20028;-67
2022/07/11 00:36:10;;;;;;;4.68;2.33;;;18.40;99.90;;;;;;5071885;28;20129;-67
2022/07/11 00:38:36;;;;;;;9.82;2.72;;;18.40;99.90;;;;;;5072167;28;20028;-67
2022/07/11 00:41:01;;;;;;;2.78;2.08;;;18.40;99.90;;;;;;5071675;28;20032;-67
2022/07/11 00:43:32;;;;;;;4.93;2.65;;;18.40;99.90;;;;;;5072135;28;20063;-67
2022/07/11 00:45:58;;;;;;;4.60;2.33;;;18.30;99.90;;;;;;5072101;28;20039;-67
2022/07/11 00:48:24;;;;;;;5.82;2.05;;;18.30;99.90;;;;;;5072089;28;20383;-67
2022/07/11 00:50:49;;;;;;;7.43;2.72;;;18.30;99.90;;;;;;5071806;28;20034;-67
2022/07/11 00:53:16;;;;;;;3.58;2.72;;;18.30;99.90;;;;;;5072150;28;20480;-67
2022/07/11 00:55:41;;;;;;;6.35;2.70;;;18.30;99.90;;;;;;5069858;28;20025;-67
2022/07/11 00:58:07;;;;;;;4.00;2.28;;;18.30;99.90;;;;;;5071850;28;20021;-67
2022/07/11 01:00:33;;;;;;;4.72;2.90;;;18.20;99.90;;;;;;5071867;28;20040;-67
2022/07/11 01:02:58;;;;;;;9.43;2.75;;;18.20;99.90;;;;;;5071676;28;20043;-67
2022/07/11 01:05:24;;;;;;;4.65;2.60;;;18.20;99.90;;;;;;5070316;28;20025;-67
2022/07/11 01:07:49;;;;;;;4.70;2.63;;;18.20;99.90;;;;;;5071123;28;20024;-66
2022/07/11 01:10:15;;;;;;;3.72;2.40;;;18.20;99.90;;;;;;5071319;28;20028;-67
2022/07/11 01:12:41;;;;;;;5.05;2.53;;;18.20;99.90;;;;;;5071231;28;20166;-67
2022/07/11 01:15:07;;;;;;;6.05;2.47;;;18.20;99.90;;;;;;5072053;28;20479;-67
2022/07/11 01:17:33;;;;;;;6.43;2.80;;;18.10;99.90;;;;;;5071145;28;20054;-67
2022/07/11 01:20:00;;;;;;;8.18;2.63;;;18.10;99.90;;;;;;5071565;28;20145;-67
2022/07/11 01:22:28;;;;;;;6.13;2.63;;;18.10;99.90;;;;;;5070354;28;20098;-67
2022/07/11 01:24:54;;;;;;;5.00;2.38;;;18.10;99.90;;;;;;5071353;28;20028;-67
2022/07/11 01:27:21;;;;;;;4.07;2.55;;;18.10;99.90;;;;;;5071381;28;20103;-67
2022/07/11 01:29:47;;;;;;;7.40;3.20;;;18.10;99.90;;;;;;5070877;28;20028;-67
2022/07/11 01:32:13;;;;;;;12.80;3.38;;;18.10;99.90;;;;;;5071282;28;20113;-67
2022/07/11 01:34:38;;;;;;;7.18;2.63;;;18.10;99.90;;;;;;5071774;28;20367;-67
2022/07/11 01:37:04;;;;;;;5.72;2.70;;;18.00;99.90;;;;;;5071276;28;20036;-67
2022/07/11 01:39:29;;;;;;;5.53;2.65;;;18.00;99.90;;;;;;5071625;28;21330;-67
2022/07/11 01:41:57;;;;;;;5.15;2.45;;;18.00;99.90;;;;;;5071830;28;20028;-67
2022/07/11 01:44:23;;;;;;;5.65;2.30;;;17.90;99.90;;;;;;5071534;28;20107;-67
2022/07/11 01:46:48;;;;;;;5.60;2.65;;;17.90;99.90;;;;;;5071386;28;20120;-67
2022/07/11 01:49:15;;;;;;;6.72;2.25;;;17.90;99.90;;;;;;5071498;28;20107;-67
2022/07/11 01:51:41;;;;;;;5.05;2.15;;;17.80;99.90;;;;;;5071091;28;20017;-67
2022/07/11 01:54:07;;;;;;;7.28;2.53;;;17.80;99.90;;;;;;5071267;28;20017;-67
2022/07/11 01:56:33;;;;;;;6.75;2.78;;;17.80;99.90;;;;;;5071273;28;20032;-67
2022/07/11 01:58:59;;;;;;;3.60;2.55;;;17.70;99.90;;;;;;5071941;28;20021;-67
2022/07/11 02:01:26;;;;;;;6.90;2.65;;;17.70;99.90;;;;;;5070332;28;20048;-67
2022/07/11 02:03:52;;;;;;;8.20;2.80;;;17.60;99.90;;;;;;5071302;28;20031;-67
2022/07/11 02:06:18;;;;;;;5.78;2.67;;;17.60;99.90;;;;;;5071041;28;20021;-68
2022/07/11 02:08:44;;;;;;;5.85;2.72;;;17.60;99.90;;;;;;5070949;28;20066;-67
2022/07/11 02:11:09;;;;;;;5.68;2.30;;;17.60;99.90;;;;;;5070958;28;20046;-67
2022/07/11 02:13:35;;;;;;;3.03;2.38;;;17.50;99.90;;;;;;5067049;28;20339;-67
2022/07/11 02:16:02;;;;;;;5.65;2.33;;;17.50;99.90;;;;;;5070688;28;20505;-67
2022/07/11 02:18:28;;;;;;;5.47;2.75;;;17.50;99.90;;;;;;5071030;28;20021;-67
2022/07/11 02:20:54;;;;;;;9.38;3.17;;;17.50;99.90;;;;;;5070712;28;20377;-67
2022/07/11 02:23:20;;;;;;;7.68;3.25;;;17.40;99.90;;;;;;5070574;28;20448;-67
2022/07/11 02:25:47;;;;;;;6.47;3.20;;;17.40;99.90;;;;;;5070764;28;20035;-67
2022/07/11 02:28:13;;;;;;;6.72;2.80;;;17.30;99.90;;;;;;5069893;28;20564;-67
2022/07/11 02:30:41;;;;;;;8.23;3.60;;;17.40;99.90;;;;;;5070319;28;20033;-67
2022/07/11 02:33:07;;;;;;;5.35;3.15;;;17.30;99.90;;;;;;5070164;28;20400;-67
2022/07/11 02:35:33;;;;;;;6.85;3.40;;;17.30;99.90;;;;;;5070640;28;20028;-67
2022/07/11 02:37:59;;;;;;;6.88;3.85;;;17.20;99.90;;;;;;5070472;28;20028;-67
2022/07/11 02:40:26;;;;;;;6.05;3.78;;;17.10;99.90;;;;;;5070453;28;20028;-67
2022/07/11 02:42:52;;;;;;;11.45;3.95;;;17.10;99.90;;;;;;5070089;28;20025;-67
2022/07/11 02:45:18;;;;;;;5.60;3.63;;;17.10;99.90;;;;;;5070174;28;20547;-67
2022/07/11 02:47:45;;;;;;;13.90;4.18;;;17.10;99.90;;;;;;5070003;28;20088;-68
2022/07/11 02:50:12;;;;;;;5.18;3.55;;;17.00;99.90;;;;;;5070342;28;20517;-67
2022/07/11 02:52:38;;;;;;;9.38;4.65;;;17.10;99.90;;;;;;5069944;28;20031;-67
2022/07/11 02:55:04;;;;;;;7.55;3.80;;;17.00;99.90;;;;;;5070407;28;20020;-67
2022/07/11 02:57:30;;;;;;;13.27;4.80;;;17.00;99.90;;;;;;5070408;28;20397;-67
2022/07/11 02:59:55;;;;;;;10.65;4.68;;;17.00;99.90;;;;;;5069750;28;20040;-67
2022/07/11 03:02:21;;;;;;;6.50;4.05;;;17.00;99.90;;;;;;5069840;28;20103;-67
2022/07/11 03:04:47;;;;;;;8.68;3.83;;;16.90;99.90;;;;;;5070501;28;20030;-68
2022/07/11 03:07:12;;;;;;;8.43;4.35;;;16.90;99.90;;;;;;5069950;28;20021;-67
2022/07/11 03:09:38;;;;;;;9.73;4.35;;;16.90;99.90;;;;;;5069252;28;20025;-67
2022/07/11 03:12:04;;;;;;;14.55;4.93;;;16.80;99.90;;;;;;5069758;28;20098;-67
2022/07/11 03:14:29;;;;;;;14.93;4.93;;;16.80;99.90;;;;;;5070117;28;20398;-67
2022/07/11 03:16:55;;;;;;;7.15;4.20;;;16.70;99.90;;;;;;5070009;28;20108;-66
2022/07/11 03:19:21;;;;;;;13.30;5.05;;;16.70;99.90;;;;;;5069882;28;20020;-67
2022/07/11 03:21:46;;;;;;;6.72;4.07;;;16.70;99.90;;;;;;5069089;28;20052;-68
2022/07/11 03:24:12;;;;;;;18.25;5.10;;;16.70;99.90;;;;;;5069505;28;20024;-67
2022/07/11 03:26:38;;;;;;;13.70;4.70;;;16.70;99.90;;;;;;5069068;28;20139;-67
2022/07/11 03:29:04;;;;;;;10.70;4.88;;;16.60;99.90;;;;;;5069869;28;20024;-67
2022/07/11 03:31:30;;;;;;;10.02;5.03;;;16.60;99.90;;;;;;5069458;28;20047;-67
2022/07/11 03:33:55;;;;;;;8.23;4.13;;;16.60;99.90;;;;;;5069840;28;20398;-67
2022/07/11 03:36:21;;;;;;;9.80;5.22;;;16.50;99.90;;;;;;5069457;28;20556;-67
2022/07/11 03:38:47;;;;;;;8.48;4.43;;;16.50;99.90;;;;;;5069883;28;20028;-66
2022/07/11 03:41:12;;;;;;;10.07;4.53;;;16.50;99.90;;;;;;5073832;28;20032;-67
2022/07/11 03:43:38;;;;;;;15.00;5.30;;;16.50;99.90;;;;;;5073612;28;20043;-67
2022/07/11 03:46:06;;;;;;;12.50;5.63;;;16.50;99.90;;;;;;5073550;28;20028;-67
2022/07/11 03:48:31;;;;;;;9.35;5.43;;;16.50;99.90;;;;;;5073863;28;20057;-67
2022/07/11 03:50:57;;;;;;;9.40;5.05;;;16.40;99.90;;;;;;5073470;28;20393;-67
2022/07/11 03:53:22;;;;;;;12.98;5.03;;;16.40;99.90;;;;;;5073182;28;20406;-67
2022/07/11 03:55:48;;;;;;;8.32;5.50;;;16.30;99.90;;;;;;5073261;28;20502;-67
2022/07/11 03:58:14;;;;;;;10.95;5.93;;;16.30;99.90;;;;;;5073662;28;20024;-67
2022/07/11 04:00:39;;;;;;;11.02;6.18;;;16.30;99.90;;;;;;5073524;28;20170;-67
2022/07/11 04:03:05;;;;;;;16.85;6.35;;;16.30;99.90;;;;;;5073084;28;20029;-67
2022/07/11 04:05:31;;;;;;;14.45;6.10;;;16.20;99.90;;;;;;5070406;28;20032;-67
2022/07/11 04:07:57;;;;;;;11.70;6.03;;;16.30;99.90;;;;;;5073956;28;20017;-67
2022/07/11 04:10:23;;;;;;;14.30;5.90;;;16.20;99.90;;;;;;5072074;28;20406;-67
2022/07/11 04:12:49;;;;;;;13.00;6.30;;;16.20;99.90;;;;;;5073663;28;20033;-67
2022/07/11 04:15:14;;;;;;;12.90;5.82;;;16.20;99.90;;;;;;5074183;28;20051;-67
2022/07/11 04:17:40;;;;;;;9.13;6.22;;;16.30;99.90;;;;;;5073525;28;20020;-67
2022/07/11 04:20:06;;;;;;;14.65;7.40;;;16.30;99.90;;;;;;5073506;28;20071;-67
2022/07/11 04:22:31;;;;;;;8.02;5.78;;;16.30;99.90;;;;;;5073378;28;20120;-67
2022/07/11 04:24:57;;;;;;;9.75;6.20;;;16.30;99.90;;;;;;5073145;28;20037;-67
2022/07/11 04:27:24;;;;;;;8.18;5.38;;;16.30;99.90;;;;;;5074144;28;20039;-67
2022/07/11 04:29:50;;;;;;;8.43;5.47;;;16.40;99.90;;;;;;5083663;22;20025;-83
2022/07/11 04:32:16;;;;;;;8.98;5.55;;;16.50;99.90;;;;;;5101355;22;20048;-61
2022/07/11 04:34:41;;;;;;;13.55;6.60;;;16.50;99.90;;;;;;5093051;28;20075;-60
2022/07/11 04:37:07;;;;;;;8.32;5.22;;;16.50;99.90;;;;;;5093121;28;20550;-61
2022/07/11 04:39:32;;;;;;;9.70;4.97;;;16.60;99.90;;;;;;5092295;28;20035;-61
2022/07/11 04:41:59;;;;;;;10.07;5.10;;;16.60;99.90;;;;;;5092734;28;20024;-60
2022/07/11 04:44:26;;;;;;;9.38;5.72;;;16.60;99.90;;;;;;5093102;28;20052;-61
2022/07/11 04:46:51;;;;;;;15.90;6.38;;;16.60;99.90;;;;;;5093351;28;20026;-59
2022/07/11 04:49:18;;;;;;;11.75;5.72;;;16.60;99.90;;;;;;5092413;28;20036;-61
2022/07/11 04:51:44;;;;;;;10.10;5.72;;;16.60;99.90;;;;;;5091598;28;20016;-61
2022/07/11 04:54:09;;;;;;;8.82;5.88;;;16.70;99.90;;;;;;5092035;28;20394;-60
2022/07/11 04:56:35;;;;;;;13.38;5.70;;;16.70;99.90;;;;;;5092394;28;20647;-61
2022/07/11 04:59:01;;;;;;;8.07;5.90;;;16.70;99.90;;;;;;5092766;28;20643;-61
2022/07/11 05:01:28;;;;;;;7.05;4.97;;;16.80;99.90;;;;;;5092268;28;20040;-61
2022/07/11 05:03:54;;;;;;;9.32;5.38;;;16.80;99.90;;;;;;5092877;28;20055;-61
2022/07/11 05:06:20;;;;;;;9.35;5.18;;;16.80;99.90;;;;;;5092496;28;20024;-60
2022/07/11 05:08:46;;;;;;;10.38;5.18;;;16.90;99.90;;;;;;5092240;28;20061;-60
2022/07/11 05:11:11;;;;;;;16.15;5.57;;;16.90;99.90;;;;;;5092340;28;20020;-61
2022/07/11 05:13:37;;;;;;;6.10;4.65;;;16.90;99.90;;;;;;5090809;28;20031;-61
2022/07/11 05:16:03;;;;;;;12.63;5.60;;;16.90;99.90;;;;;;5091891;28;20020;-60
2022/07/11 05:18:29;;;;;;;12.10;5.55;;;16.90;99.90;;;;;;5092377;28;20474;-61
2022/07/11 05:20:55;;;;;;;9.70;4.88;;;16.90;99.90;;;;;;5092238;28;20036;-61
2022/07/11 05:23:20;;;;;;;10.43;5.32;;;17.00;99.90;;;;;;5091755;28;20031;-60
2022/07/11 05:25:46;;;;;;;11.05;5.32;;;17.00;99.90;;;;;;5091933;28;20030;-59
2022/07/11 05:28:11;;;;;;;7.65;5.20;;;17.00;99.90;;;;;;5091408;28;20028;-60
2022/07/11 05:30:37;;;;;;;7.38;4.03;;;17.00;99.90;;;;;;5091818;28;20028;-61
2022/07/11 05:33:03;;;;;;;6.97;4.57;;;17.00;99.90;;;;;;5091856;28;20035;-61
2022/07/11 05:35:28;;;;;;;21.00;5.57;;;17.00;99.90;;;;;;5091929;28;20370;-61
2022/07/11 05:37:54;;;;;;;7.75;4.97;;;17.00;99.90;;;;;;5091802;28;20036;-61
2022/07/11 05:40:20;;;;;;;13.75;5.18;;;17.10;99.90;;;;;;5091353;28;20024;-61
2022/07/11 05:42:45;;;;;;;9.32;4.68;;;17.20;99.90;;;;;;5091818;28;20402;-62
2022/07/11 05:45:11;;;;;;;7.15;4.50;;;17.20;99.90;;;;;;5091727;28;20047;-61
2022/07/11 05:47:37;;;;;;;7.78;4.30;;;17.20;99.90;;;;;;5091339;28;20030;-61
2022/07/11 05:50:03;;;;;;;11.07;5.38;;;17.20;99.90;;;;;;5091672;28;20024;-62
2022/07/11 05:52:29;;;;;;;10.93;5.15;;;17.20;99.90;;;;;;5091126;28;20031;-60
2022/07/11 05:54:54;;;;;;;6.60;4.80;;;17.10;99.90;;;;;;5091475;28;20114;-61
2022/07/11 05:57:20;;;;;;;14.25;4.95;;;17.20;99.90;;;;;;5091665;28;20032;-61
2022/07/11 05:59:48;;;;;;;11.05;5.22;;;17.20;99.90;;;;;;5091006;28;20044;-60
2022/07/11 06:02:14;;;;;;;9.93;5.10;;;17.20;99.90;;;;;;5091031;28;20112;-61
2022/07/11 06:04:39;;;;;;;12.05;5.68;;;17.20;99.90;;;;;;5091389;28;20493;-61
2022/07/11 06:07:05;;;;;;;9.10;4.75;;;17.10;99.90;;;;;;5091847;28;20476;-61
2022/07/11 06:09:31;;;;;;;15.40;5.05;;;17.20;99.90;;;;;;5090856;28;20031;-59
2022/07/11 06:11:57;;;;;;;16.95;5.68;;;17.20;99.90;;;;;;5076135;28;20020;-59
2022/07/11 06:14:24;;;;;;;15.07;5.18;;;17.20;99.90;;;;;;5091361;28;20023;-61
2022/07/11 06:16:50;;;;;;;8.05;4.88;;;17.20;99.90;;;;;;5090730;28;20043;-61
2022/07/11 06:19:15;;;;;;;7.97;4.93;;;17.20;99.90;;;;;;5091111;28;20482;-62
2022/07/11 06:21:41;;;;;;;8.98;4.22;;;17.20;99.90;;;;;;5090645;28;20203;-60
2022/07/11 06:24:06;;;;;;;13.38;4.82;;;17.20;99.90;;;;;;5090947;28;20391;-61
2022/07/11 06:26:32;;;;;;;9.55;4.82;;;17.20;99.90;;;;;;5090644;28;20108;-61
2022/07/11 06:28:58;;;;;;;8.73;4.97;;;17.30;99.90;;;;;;5089797;28;20026;-62
2022/07/11 06:31:23;;;;;;;9.10;5.15;;;17.30;99.90;;;;;;5089919;28;20036;-61
2022/07/11 06:33:54;;;;;;;9.23;5.60;;;17.30;99.90;;;;;;5090810;28;20031;-61
2022/07/11 06:36:22;;;;;;;12.98;5.10;;;17.30;99.90;;;;;;5090283;28;20028;-60
2022/07/11 06:38:48;;;;;;;14.73;5.45;;;17.30;99.90;;;;;;5091015;28;20103;-60
2022/07/11 06:41:14;;;;;;;10.75;6.20;;;17.30;99.90;;;;;;5090529;28;20032;-59
2022/07/11 06:43:40;;;;;;;9.68;6.78;;;17.30;99.90;;;;;;5090862;28;20028;-59
2022/07/11 06:46:05;;;;;;;14.07;7.30;;;17.40;99.90;;;;;;5090273;28;20088;-63
2022/07/11 06:48:31;;;;;;;12.00;6.85;;;17.40;99.90;;;;;;5090787;28;20095;-61
2022/07/11 06:50:56;;;;;;;12.75;7.55;;;17.50;99.90;;;;;;5090192;28;20024;-60
2022/07/11 06:53:22;;;;;;;11.10;7.85;;;17.50;99.90;;;;;;5090239;28;20098;-59
2022/07/11 06:55:47;;;;;;;12.13;7.93;;;17.50;99.90;;;;;;5090204;28;20028;-61
2022/07/11 06:58:31;;;;;;;14.27;7.40;;;17.50;99.90;;;;;;5090531;28;20085;-61
2022/07/11 07:00:57;;;;;;;18.48;9.52;;;17.50;99.90;;;;;;5090477;28;20034;-60
2022/07/11 07:03:23;;;;;;;18.27;9.93;;;17.50;99.90;;;;;;5090035;28;20031;-60
2022/07/11 07:05:49;;;;;;;14.00;9.90;;;17.60;99.90;;;;;;5090270;28;20028;-59
2022/07/11 07:08:14;;;;;;;15.00;10.77;;;17.70;99.90;;;;;;5089938;28;20028;-61
2022/07/11 07:10:40;;;;;;;15.63;9.65;;;17.80;99.90;;;;;;5090110;28;20021;-58
2022/07/11 07:13:05;;;;;;;17.80;11.57;;;17.90;99.90;;;;;;5090036;28;20485;-61
2022/07/11 07:15:31;;;;;;;19.83;12.05;;;17.90;99.90;;;;;;5089907;28;20024;-60
2022/07/11 07:17:56;;;;;;;17.25;12.63;;;18.00;99.90;;;;;;5090179;28;20036;-61
2022/07/11 07:20:22;;;;;;;22.10;14.27;;;18.10;99.90;;;;;;5090101;28;20024;-61
2022/07/11 07:22:47;;;;;;;17.10;13.20;;;18.30;99.90;;;;;;5089647;28;20024;-61
2022/07/11 07:25:13;;;;;;;18.05;12.32;;;18.40;99.90;;;;;;5089804;28;20494;-61
2022/07/11 07:27:39;;;;;;;20.23;12.93;;;18.40;99.90;;;;;;5089688;28;20095;-61
2022/07/11 07:30:05;;;;;;;20.02;12.32;;;18.50;99.90;;;;;;5089271;28;20074;-61
2022/07/11 07:32:30;;;;;;;16.02;12.02;;;18.50;99.90;;;;;;5089418;28;20032;-61
2022/07/11 07:34:56;;;;;;;17.15;11.60;;;18.60;99.90;;;;;;5089929;28;20084;-61
2022/07/11 07:37:21;;;;;;;18.25;11.82;;;18.70;99.90;;;;;;5090322;28;20103;-61
2022/07/11 07:39:47;;;;;;;13.93;9.60;;;18.70;99.90;;;;;;5089546;28;20067;-61
2022/07/11 07:42:12;;;;;;;15.50;10.45;;;18.60;99.90;;;;;;5089544;28;20027;-62
2022/07/11 07:44:38;;;;;;;19.10;10.20;;;18.50;99.90;;;;;;5089772;28;20099;-61
2022/07/11 07:47:03;;;;;;;16.25;10.35;;;18.40;99.90;;;;;;5089877;28;20081;-61
2022/07/11 07:49:29;;;;;;;13.48;10.13;;;18.40;99.90;;;;;;5089877;28;20020;-61
2022/07/11 07:51:54;;;;;;;12.80;9.00;;;18.30;99.90;;;;;;5090146;28;20020;-61
2022/07/11 07:54:20;;;;;;;16.25;10.82;;;18.30;99.90;;;;;;5089750;28;20086;-61
2022/07/11 07:56:45;;;;;;;17.13;11.45;;;18.30;99.90;;;;;;5089848;28;20028;-61
2022/07/11 07:59:11;;;;;;;15.95;10.63;;;18.30;99.90;;;;;;5089778;28;20040;-60
2022/07/11 08:01:36;;;;;;;14.13;9.48;;;18.30;99.90;;;;;;5086549;28;20020;-61
2022/07/11 08:04:04;;;;;;;20.70;11.68;;;18.30;99.90;;;;;;5088739;28;20024;-59
2022/07/11 08:06:29;;;;;;;19.92;11.10;;;18.30;99.90;;;;;;5089272;28;20028;-61
2022/07/11 08:08:55;;;;;;;19.80;11.07;;;18.30;99.90;;;;;;5089247;28;20458;-61
2022/07/11 08:11:20;;;;;;;15.20;10.48;;;18.30;99.90;;;;;;5089339;28;20168;-61
2022/07/11 08:13:46;;;;;;;17.48;10.55;;;18.30;99.90;;;;;;5089902;28;20659;-58
2022/07/11 08:16:12;;;;;;;19.98;10.73;;;18.30;99.90;;;;;;5089535;28;20050;-58
2022/07/11 08:18:37;;;;;;;17.02;11.48;;;18.30;99.90;;;;;;5089463;28;20028;-61
2022/07/11 08:21:03;;;;;;;18.33;11.65;;;18.40;99.90;;;;;;5088786;28;20078;-60
2022/07/11 08:23:29;;;;;;;17.23;12.43;;;18.40;99.90;;;;;;5088670;28;20028;-61
2022/07/11 08:25:54;;;;;;;16.38;12.52;;;18.40;99.90;;;;;;5089528;28;20053;-61
2022/07/11 08:28:20;;;;;;;19.38;13.60;;;18.50;99.90;;;;;;5092890;28;20030;-59
2022/07/11 08:30:46;;;;;;;24.13;13.68;;;18.50;99.90;;;;;;5093358;28;20443;-61
2022/07/11 08:33:12;;;;;;;16.80;13.30;;;18.50;99.90;;;;;;5093308;28;20042;-59
2022/07/11 08:35:38;;;;;;;21.40;14.25;;;18.40;99.90;;;;;;5093220;28;20038;-60
2022/07/11 08:38:04;;;;;;;20.88;14.63;;;18.50;99.90;;;;;;5092157;28;20044;-61
2022/07/11 08:40:29;;;;;;;27.48;17.17;;;18.60;99.90;;;;;;5092395;28;20032;-60
2022/07/11 08:42:57;;;;;;;22.95;17.02;;;18.60;99.90;;;;;;5092310;28;20085;-60
2022/07/11 08:45:27;;;;;;;23.05;16.05;;;18.70;99.90;;;;;;5092770;28;20032;-61
2022/07/11 08:47:54;;;;;;;22.48;15.27;;;18.70;99.90;;;;;;5093026;28;20470;-61
2022/07/11 08:50:22;;;;;;;21.77;16.73;;;18.70;99.90;;;;;;5092788;28;20470;-59
2022/07/11 08:52:47;;;;;;;21.92;15.50;;;18.80;99.90;;;;;;5092580;28;20135;-61
2022/07/11 08:55:13;;;;;;;19.35;14.35;;;18.80;99.90;;;;;;5092240;28;20139;-60
2022/07/11 08:57:39;;;;;;;16.95;12.80;;;18.90;99.90;;;;;;5092370;28;20137;-58
2022/07/11 09:00:08;;;;;;;19.50;13.85;;;18.90;99.90;;;;;;5092643;28;20028;-62
2022/07/11 09:02:34;;;;;;;18.98;13.32;;;18.90;99.90;;;;;;5092263;28;20486;-61
2022/07/11 09:05:03;;;;;;;18.95;12.50;;;18.90;99.90;;;;;;5092568;28;20028;-62
2022/07/11 09:07:29;;;;;;;15.52;10.88;;;18.90;99.90;;;;;;5092193;28;20034;-61
2022/07/11 09:09:55;;;;;;;17.23;9.98;;;19.00;99.90;;;;;;5091624;28;20081;-61
2022/07/11 09:12:20;;;;;;;17.20;10.52;;;19.10;99.90;;;;;;5092030;28;20040;-61
2022/07/11 09:14:51;;;;;;;14.70;9.25;;;19.10;99.90;;;;;;5092854;28;20016;-60
2022/07/11 09:17:28;;;;;;;8.60;6.82;;;19.10;99.90;;;;;;5092447;28;20017;-61
2022/07/11 09:19:54;;;;;;;6.72;5.68;;;19.20;99.90;;;;;;5092376;28;20020;-61
2022/07/11 09:28:09;;;;;;;;;;;19.10;99.90;;;;;;5059349;28;20055;-61
2022/07/11 09:30:39;;;;;;;4.57;3.65;;;19.10;99.90;;;;;;5072187;28;19908;-60
2022/07/11 09:33:09;;;;;;;3.40;2.80;;;19.10;99.90;;;;;;5071164;28;20039;-60
2022/07/11 09:35:40;;;;;;;5.45;3.35;;;19.10;99.90;;;;;;5071736;28;20028;-61
2022/07/11 09:38:17;;;;;;;6.07;2.92;;;19.10;99.90;;;;;;5072048;28;20036;-61
2022/07/11 09:40:44;;;;;;;8.68;3.08;;;19.20;99.90;;;;;;5090799;28;20339;-61
2022/07/11 09:43:09;;;;;;;5.65;3.08;;;19.20;99.90;;;;;;5091512;28;20036;-59
2022/07/11 09:45:36;;;;;;;5.63;2.97;;;19.20;99.90;;;;;;5091742;28;20024;-60
2022/07/11 09:48:08;;;;;;;5.25;2.53;;;19.20;99.90;;;;;;5090988;28;20020;-60
2022/07/11 09:50:34;;;;;;;5.63;2.60;;;19.10;99.90;;;;;;5091588;28;20031;-61
2022/07/11 09:53:04;;;;;;;2.85;2.50;;;19.00;99.90;;;;;;5091144;28;20016;-61
2022/07/11 09:55:31;;;;;;;4.88;2.80;;;19.10;99.90;;;;;;5091535;28;20123;-60
2022/07/11 09:57:57;;;;;;;3.75;2.28;;;19.30;99.90;;;;;;5091644;28;20061;-61
2022/07/11 10:00:24;;;;;;;10.38;2.95;;;19.40;99.90;;;;;;5091262;28;20118;-61
2022/07/11 10:02:52;;;;;;;6.35;4.55;;;19.50;99.90;;;;;;5090994;28;20470;-61
2022/07/11 10:05:17;;;;;;;6.82;3.85;;;19.50;99.90;;;;;;5088106;28;20111;-60
2022/07/11 10:07:43;;;;;;;11.48;4.60;;;19.50;99.90;;;;;;5091534;28;20106;-61
2022/07/11 10:10:10;;;;;;;5.00;4.15;;;19.50;99.90;;;;;;5091248;28;20032;-61
2022/07/11 10:12:36;;;;;;;5.93;4.53;;;19.60;99.90;;;;;;5091015;28;20016;-61
2022/07/11 10:15:06;;;;;;;5.93;4.00;;;19.80;99.90;;;;;;5091233;28;20028;-59
2022/07/11 10:18:00;;;;;;;8.20;4.78;;;19.90;99.90;;;;;;5091422;28;20081;-60
2022/07/11 10:20:57;;;;;;;11.55;4.40;;;20.00;99.90;;;;;;5091263;28;20372;-60
2022/07/11 10:23:46;;;;;;;4.97;4.22;;;20.00;99.90;;;;;;5089894;28;20024;-61
2022/07/11 10:26:35;;;;;;;5.72;4.00;;;20.00;99.90;;;;;;5090848;28;20074;-60
2022/07/11 10:29:31;;;;;;;5.43;3.85;;;20.00;99.90;;;;;;5090497;28;20026;-62
2022/07/11 10:32:07;;;;;;;4.43;3.83;;;20.20;99.90;;;;;;5077592;28;20044;-63
2022/07/11 10:34:34;;;;;;;6.72;4.03;;;20.20;99.90;;;;;;5091316;28;20027;-63
2022/07/11 10:37:04;;;;;;;6.72;4.70;;;20.30;99.90;;;;;;5090058;28;20024;-63
2022/07/11 10:39:32;;;;;;;7.35;5.90;;;20.30;99.90;;;;;;5091127;28;20024;-63
2022/07/11 10:42:00;;;;;;;7.93;6.65;;;20.30;99.90;;;;;;5090365;28;20031;-63
2022/07/11 10:44:46;;;;;;;9.13;6.85;;;20.30;99.90;;;;;;5091177;28;20110;-63
2022/07/11 10:47:42;;;;;;;7.85;6.03;;;20.30;99.90;;;;;;5090589;28;20058;-64
2022/07/11 10:50:13;;;;;;;8.32;6.03;;;20.30;99.90;;;;;;5072541;28;20524;-64
2022/07/11 10:52:41;;;;;;;7.85;6.57;;;20.10;99.90;;;;;;5090167;28;20482;-64
2022/07/11 10:55:09;;;;;;;11.20;8.23;;;20.20;99.90;;;;;;5090154;28;20106;-64
2022/07/11 10:57:43;;;;;;;13.82;7.97;;;20.20;99.90;;;;;;5090673;28;20355;-64
2022/07/11 11:00:14;;;;;;;9.85;8.18;;;20.20;99.90;;;;;;5090322;28;20028;-64
2022/07/11 11:03:00;;;;;;;9.45;7.55;;;20.10;99.90;;;;;;5090139;28;20024;-64
2022/07/11 11:05:44;;;;;;;14.57;10.93;;;20.10;99.90;;;;;;5090836;28;20077;-64
2022/07/11 11:08:48;;;;;;;;;;;20.20;99.90;;;;;;5090762;28;20187;-61
2022/07/11 11:11:19;;;;;;;15.70;12.13;;;20.30;99.90;;;;;;5027875;28;19994;-61
2022/07/11 11:13:45;;;;;;;12.68;10.07;;;20.30;99.90;;;;;;5027455;28;20499;-62
2022/07/11 11:16:22;;;;;;;10.60;9.48;;;20.20;99.90;;;;;;5049362;28;20036;-62
2022/07/11 11:18:48;;;;;;;14.55;9.52;;;20.20;99.90;;;;;;5091789;28;20012;-63
2022/07/11 11:21:18;;;;;;;12.73;9.02;;;20.30;99.90;;;;;;5091324;28;20043;-62
2022/07/11 11:23:59;;;;;;;16.05;10.38;;;20.20;99.90;;;;;;5091070;28;20154;-63
2022/07/11 11:26:24;;;;;;;17.38;11.73;;;20.30;99.90;;;;;;5091418;28;20035;-65
2022/07/11 11:29:01;;;;;;;15.27;11.20;;;20.30;99.90;;;;;;5091348;28;20020;-63
2022/07/11 11:31:29;;;;;;;15.02;13.07;;;20.10;99.90;;;;;;5090268;28;20149;-63
2022/07/11 11:33:56;;;;;;;19.38;13.63;;;20.10;99.90;;;;;;5091363;28;20035;-63
2022/07/11 11:36:23;;;;;;;17.35;14.45;;;20.00;99.90;;;;;;5090962;28;20020;-63
2022/07/11 11:38:50;;;;;;;19.60;15.27;;;20.00;99.90;;;;;;5091298;28;20017;-63
2022/07/11 11:41:32;;;;;;;21.60;16.80;;;20.10;99.90;;;;;;5091185;28;20396;-63
2022/07/11 11:44:02;;;;;;;18.63;14.57;;;20.10;99.90;;;;;;5091000;28;20085;-63
2022/07/11 11:46:29;;;;;;;18.58;14.65;;;20.10;99.90;;;;;;5089850;28;20032;-63
2022/07/11 11:48:57;;;;;;;20.50;14.13;;;20.10;99.90;;;;;;5091202;28;20085;-63
2022/07/11 11:51:24;;;;;;;14.02;11.35;;;20.10;99.90;;;;;;5089588;28;20027;-63
2022/07/11 11:54:09;;;;;;;14.25;12.15;;;20.10;99.90;;;;;;5090825;28;20028;-63
2022/07/11 11:56:36;;;;;;;11.38;9.80;;;20.10;99.90;;;;;;5089777;28;20028;-63
2022/07/11 11:59:07;;;;;;;16.48;12.82;;;20.20;99.90;;;;;;5087389;28;20020;-63
2022/07/11 12:01:35;;;;;;;15.27;12.27;;;20.20;99.90;;;;;;5093890;28;20482;-63
2022/07/11 12:04:03;;;;;;;19.30;13.82;;;20.30;99.90;;;;;;5093882;28;20058;-63
2022/07/11 12:06:33;;;;;;;18.48;14.68;;;20.40;99.90;;;;;;5095118;28;20063;-64
2022/07/11 12:09:12;;;;;;;16.73;13.52;;;20.50;99.90;;;;;;5094736;28;20551;-63
2022/07/11 12:11:42;;;;;;;17.52;13.80;;;20.60;99.90;;;;;;5094713;28;20450;-64
2022/07/11 12:14:09;;;;;;;21.13;16.35;;;20.60;99.90;;;;;;5095011;28;20032;-64
2022/07/11 12:16:43;;;;;;;17.75;14.50;;;20.70;99.90;;;;;;5093567;28;20050;-64
2022/07/11 12:19:17;;;;;;;15.73;12.05;;;20.60;99.90;;;;;;5093700;28;20059;-64
2022/07/11 12:21:48;;;;;;;14.70;11.55;;;20.50;99.90;;;;;;5094503;28;20107;-63
2022/07/11 12:24:22;;;;;;;16.23;11.60;;;20.40;99.90;;;;;;5094485;28;20077;-64
2022/07/11 12:26:49;;;;;;;16.27;11.68;;;20.50;99.90;;;;;;5094961;28;20047;-63
2022/07/11 12:29:22;;;;;;;15.25;11.80;;;20.60;99.90;;;;;;5094678;28;20077;-64
2022/07/11 12:31:49;;;;;;;21.02;12.27;;;20.60;99.90;;;;;;5094239;28;20028;-64
2022/07/11 12:34:20;;;;;;;16.38;12.50;;;20.70;99.90;;;;;;5093252;28;20103;-64
2022/07/11 12:36:46;;;;;;;19.38;14.25;;;20.80;99.90;;;;;;5094506;28;20394;-64
2022/07/11 12:39:25;;;;;;;21.73;12.80;;;20.80;99.90;;;;;;5094235;28;20036;-64
2022/07/11 12:41:53;;;;;;;15.73;10.95;;;20.80;99.90;;;;;;5094087;28;20028;-64
2022/07/11 12:47:15;;;;;;;20.23;14.10;;;21.00;99.90;;;;;;5094439;28;20115;-64
2022/07/11 12:49:44;;;;;;;17.55;13.45;;;21.00;99.90;;;;;;5094421;28;20024;-64
2022/07/11 12:52:11;;;;;;;18.50;13.15;;;21.00;99.90;;;;;;5092291;28;20085;-63